Time;durP1;ratioP1;P1;durP2;ratioP2;P2;SDS_P1;SDS_P2;PMS_P1;PMS_P2;Temp;Humidity;BMP_temperature;BMP_pressure;BME280_temperature;BME280_humidity;BME280_pressure;Samples;Min_cycle;Max_cycle;Signal;HPM_P1;HPM_P2
2021/12/06 00:01:38;;;;;;;;;4.50;2.75;;;;;13.29;97.96;100638.44;5085063;27;45476;-78
2021/12/06 00:04:12;;;;;;;;;2.25;2.25;;;;;13.51;97.36;100649.00;5065758;28;45378;-78
2021/12/06 00:06:43;;;;;;;;;5.75;4.50;;;;;13.53;97.69;100633.78;5067433;27;45509;-79
2021/12/06 00:09:13;;;;;;;;;3.00;3.00;;;;;13.55;97.19;100637.16;5076765;28;45603;-79
2021/12/06 00:11:39;;;;;;;;;4.00;3.00;;;;;13.56;97.69;100644.16;5072922;27;45445;-79
2021/12/06 00:14:05;;;;;;;;;8.00;2.75;;;;;13.46;97.00;100645.88;5079751;28;45690;-79
2021/12/06 00:16:30;;;;;;;;;11.75;7.00;;;;;13.48;97.66;100658.03;5080295;28;45388;-79
2021/12/06 00:18:56;;;;;;;;;13.00;6.00;;;;;13.49;96.88;100659.72;5080201;27;46749;-79
2021/12/06 00:21:22;;;;;;;;;12.00;7.00;;;;;13.51;97.11;100650.78;5084442;27;45362;-79
2021/12/06 00:23:49;;;;;;;;;4.00;3.00;;;;;13.55;96.86;100661.06;5079472;28;45546;-79
2021/12/06 00:26:14;;;;;;;;;6.50;2.75;;;;;13.51;96.63;100656.94;5079215;28;45371;-79
2021/12/06 00:28:42;;;;;;;;;3.00;3.00;;;;;13.57;96.32;100655.59;5078848;28;46048;-79
2021/12/06 00:31:08;;;;;;;;;6.75;3.00;;;;;13.57;96.49;100656.44;5079777;28;45445;-79
2021/12/06 00:33:34;;;;;;;;;2.50;2.50;;;;;13.32;96.83;100646.97;5079454;28;45480;-79
2021/12/06 00:36:03;;;;;;;;;5.00;3.00;;;;;13.48;96.75;100657.19;5080793;27;45374;-79
2021/12/06 00:38:30;;;;;;;;;9.00;3.00;;;;;13.49;96.67;100658.88;5076807;27;46293;-79
2021/12/06 00:40:55;;;;;;;;;2.50;2.50;;;;;13.60;96.96;100672.13;5078926;28;45538;-79
2021/12/06 00:43:20;;;;;;;;;7.50;5.75;;;;;13.66;96.79;100662.81;5061525;28;45434;-79
2021/12/06 00:45:46;;;;;;;;;1.00;1.00;;;;;13.68;96.13;100684.75;5078262;28;45295;-79
2021/12/06 00:48:11;;;;;;;;;2.00;2.00;;;;;13.75;96.31;100685.94;5066573;28;48012;-79
2021/12/06 00:50:40;;;;;;;;;8.50;3.00;;;;;13.81;96.29;100688.09;5060356;28;46035;-79
2021/12/06 00:53:06;;;;;;;;;4.50;2.00;;;;;13.75;95.79;100689.44;5076695;27;45320;-79
2021/12/06 00:55:32;;;;;;;;;4.50;3.00;;;;;13.82;95.29;100695.94;5098325;27;45507;-79
2021/12/06 00:57:59;;;;;;;;;3.00;3.00;;;;;13.76;95.55;100704.41;5081132;28;45319;-79
2021/12/06 01:00:30;;;;;;;;;6.00;3.00;;;;;13.72;95.46;100705.63;5083900;27;45449;-79
2021/12/06 01:02:57;;;;;;;;;2.25;2.25;;;;;13.69;96.19;100702.38;5081276;28;45477;-79
2021/12/06 01:05:24;;;;;;;;;4.50;2.00;;;;;13.70;96.02;100704.06;5083026;27;45442;-79
2021/12/06 01:07:56;;;;;;;;;5.50;3.00;;;;;13.69;95.52;100705.03;5077208;28;46055;-79
2021/12/06 01:10:24;;;;;;;;;3.00;3.00;;;;;13.68;96.46;100695.38;5062693;28;45490;-79
2021/12/06 01:12:49;;;;;;;;;5.75;3.00;;;;;13.61;96.55;100702.16;5096822;27;45459;-79
2021/12/06 01:15:15;;;;;;;;;5.75;2.25;;;;;13.63;96.86;100710.84;5079784;28;45470;-79
2021/12/06 01:17:41;;;;;;;;;4.75;2.25;;;;;13.56;98.08;100715.81;5080822;28;46152;-79
2021/12/06 01:20:11;;;;;;;;;2.00;2.00;;;;;13.62;98.73;100715.31;5081419;28;45245;-79
2021/12/06 01:22:46;;;;;;;;;5.50;2.25;;;;;13.68;99.15;100719.25;5080571;28;45385;-79
2021/12/06 01:25:28;;;;;;;;;9.25;2.00;;;;;13.62;98.36;100725.91;5080846;27;45348;-78
2021/12/06 01:33:36;;;;;;;;;11.00;3.00;;;;;13.61;99.60;100728.69;5074421;28;45300;-79
2021/12/06 01:39:12;;;;;;;;;2.25;2.25;;;;;13.60;99.06;100737.59;5080816;28;45687;-79
2021/12/06 01:41:41;;;;;;;;;3.00;3.00;;;;;13.59;99.80;100743.88;5081307;28;45791;-79
2021/12/06 01:44:20;;;;;;;;;11.00;4.50;;;;;13.57;100.00;100736.03;5080425;28;45585;-79
2021/12/06 01:47:09;;;;;;;;;4.50;2.50;;;;;13.52;100.00;100738.22;5080750;28;45261;-79
2021/12/06 01:49:38;;;;;;;;;4.75;2.00;;;;;13.95;100.00;100754.19;5079397;28;46383;-79
2021/12/06 01:52:10;;;;;;;;;7.25;3.00;;;;;14.25;97.34;100750.81;5080796;28;45546;-79
2021/12/06 01:54:37;;;;;;;;;9.75;3.00;;;;;13.82;97.56;100746.38;5080965;28;45435;-78
2021/12/06 01:57:03;;;;;;;;;9.00;3.00;;;;;13.90;98.25;100760.84;5085165;27;45343;-79
2021/12/06 01:59:28;;;;;;;;;3.50;3.00;;;;;13.84;98.43;100756.84;5100754;27;45260;-79
2021/12/06 02:01:55;;;;;;;;;1.00;1.00;;;;;13.85;98.99;100766.50;5101027;27;45375;-79
2021/12/06 02:04:20;;;;;;;;;6.75;3.50;;;;;13.95;98.69;100772.75;5100855;27;45257;-79
2021/12/06 02:06:46;;;;;;;;;2.00;2.00;;;;;13.92;99.50;100775.69;5100806;27;45249;-79
2021/12/06 02:09:15;;;;;;;;;3.00;3.00;;;;;13.93;99.75;100781.84;5082420;27;48079;-79
2021/12/06 02:11:41;;;;;;;;;2.75;2.75;;;;;13.81;99.43;100786.31;5082448;27;45676;-79
2021/12/06 02:14:26;;;;;;;;;5.00;2.00;;;;;13.90;99.17;100787.38;5084568;27;45417;-79
2021/12/06 02:17:08;;;;;;;;;6.50;5.00;;;;;14.01;99.30;100793.53;5080524;28;45253;-79
2021/12/06 02:19:39;;;;;;;;;2.25;2.25;;;;;14.03;98.67;100788.91;5080184;27;45643;-79
2021/12/06 02:22:05;;;;;;;;;3.50;2.75;;;;;13.99;98.52;100789.28;5080435;28;45606;-79
2021/12/06 02:24:32;;;;;;;;;2.50;1.50;;;;;14.04;98.27;100792.41;5080310;27;45220;-79
2021/12/06 02:26:58;;;;;;;;;3.00;3.00;;;;;13.97;98.48;100786.75;5079054;28;45542;-79
2021/12/06 02:29:24;;;;;;;;;5.50;5.50;;;;;13.94;98.76;100794.97;5061632;28;47372;-79
2021/12/06 02:31:49;;;;;;;;;6.00;3.00;;;;;14.03;98.45;100802.19;5080120;28;45406;-79
2021/12/06 02:34:15;;;;;;;;;10.75;3.00;;;;;14.02;98.07;100800.50;5080074;28;45310;-79
2021/12/06 02:36:42;;;;;;;;;5.00;2.75;;;;;14.07;98.72;100794.81;5080322;28;45244;-79
2021/12/06 02:39:10;;;;;;;;;7.25;4.50;;;;;14.13;98.18;100795.16;5079841;28;46102;-79
2021/12/06 02:41:36;;;;;;;;;7.50;3.00;;;;;14.12;97.77;100796.13;5061806;28;45533;-79
2021/12/06 02:44:03;;;;;;;;;5.00;2.00;;;;;13.85;99.24;100803.66;5079949;28;45305;-78
2021/12/06 02:46:28;;;;;;;;;10.75;3.00;;;;;13.89;98.90;100805.13;5080247;28;45403;-79
2021/12/06 02:48:54;;;;;;;;;4.00;4.00;;;;;13.85;99.02;100801.00;5079642;28;45469;-79
2021/12/06 02:51:21;;;;;;;;;5.00;2.50;;;;;13.81;99.42;100799.59;5080058;28;45462;-79
2021/12/06 02:53:47;;;;;;;;;6.75;3.00;;;;;13.87;99.43;100801.75;5080090;28;45577;-79
2021/12/06 02:56:30;;;;;;;;;5.25;3.00;;;;;13.95;99.28;100794.00;5088009;27;45376;-79
2021/12/06 02:58:58;;;;;;;;;1.50;1.25;;;;;13.96;99.79;100793.03;5100083;27;45489;-79
2021/12/06 03:01:39;;;;;;;;;4.75;3.00;;;;;14.08;98.83;100793.88;5084819;27;45455;-79
2021/12/06 03:04:06;;;;;;;;;2.75;1.00;;;;;14.08;98.84;100801.81;5075429;28;45497;-79
2021/12/06 03:06:32;;;;;;;;;6.25;2.25;;;;;13.99;99.25;100808.72;5080008;28;45568;-79
2021/12/06 03:09:14;;;;;;;;;5.00;5.00;;;;;14.08;99.25;100812.44;5078158;28;46107;-79
2021/12/06 03:11:46;;;;;;;;;6.50;3.00;;;;;14.08;98.57;100810.63;5079819;28;45498;-79
2021/12/06 03:14:19;;;;;;;;;6.50;4.75;;;;;14.12;98.94;100822.69;5084530;27;45498;-79
2021/12/06 03:16:44;;;;;;;;;6.25;5.00;;;;;14.09;98.85;100822.94;5100053;27;45174;-79
2021/12/06 03:19:10;;;;;;;;;3.25;3.25;;;;;14.07;98.38;100824.88;5099764;27;45465;-79
2021/12/06 03:21:37;;;;;;;;;3.25;3.25;;;;;13.97;98.83;100833.72;5084145;27;45265;-79
2021/12/06 03:24:03;;;;;;;;;7.75;4.00;;;;;13.91;99.29;100828.91;5071858;28;45490;-79
2021/12/06 03:26:31;;;;;;;;;5.50;4.75;;;;;14.02;99.43;100840.31;5084654;27;45500;-79
2021/12/06 03:28:57;;;;;;;;;5.00;3.00;;;;;13.96;99.39;100838.16;5099539;27;46264;-79
2021/12/06 03:31:23;;;;;;;;;6.00;6.00;;;;;14.05;99.46;100836.59;5098199;27;45463;-79
2021/12/06 03:33:50;;;;;;;;;5.75;4.50;;;;;14.04;99.34;100841.06;5099716;27;45388;-79
2021/12/06 03:36:18;;;;;;;;;5.00;4.25;;;;;13.98;99.41;100844.22;5099791;27;45348;-79
2021/12/06 03:38:45;;;;;;;;;6.00;5.75;;;;;14.08;99.47;100841.66;5084277;27;47290;-79
2021/12/06 03:41:13;;;;;;;;;7.00;6.25;;;;;14.03;99.97;100836.69;5084716;27;45466;-79
2021/12/06 03:43:40;;;;;;;;;6.25;5.25;;;;;14.07;100.00;100840.81;5103246;27;45177;-79
2021/12/06 03:46:06;;;;;;;;;7.25;4.75;;;;;14.15;99.95;100841.03;5102741;27;45483;-79
2021/12/06 03:48:32;;;;;;;;;6.00;6.00;;;;;14.02;100.00;100829.69;5103126;27;45556;-79
2021/12/06 03:50:59;;;;;;;;;6.00;6.00;;;;;14.02;100.00;100839.50;5102211;27;45149;-79
2021/12/06 03:53:25;;;;;;;;;7.75;4.75;;;;;13.98;100.00;100843.34;5082216;27;45437;-79
2021/12/06 03:55:51;;;;;;;;;9.00;6.00;;;;;13.97;100.00;100846.97;5083424;27;45482;-79
2021/12/06 03:58:16;;;;;;;;;6.75;5.75;;;;;13.52;100.00;100846.16;5102831;27;46189;-79
2021/12/06 04:00:42;;;;;;;;;8.00;5.00;;;;;13.46;100.00;100848.34;5102915;27;45263;-79
2021/12/06 04:03:09;;;;;;;;;3.50;3.50;;;;;13.47;100.00;100849.19;5086181;27;45374;-79
2021/12/06 04:05:35;;;;;;;;;11.25;6.50;;;;;13.41;100.00;100861.09;5082498;28;45384;-79
2021/12/06 04:08:00;;;;;;;;;11.75;8.00;;;;;13.36;100.00;100860.63;5082328;28;46238;-79
2021/12/06 04:10:26;;;;;;;;;9.25;6.75;;;;;13.48;100.00;100880.88;5082392;28;45443;-79
2021/12/06 04:12:55;;;;;;;;;9.00;7.00;;;;;13.47;100.00;100884.47;5085628;27;45415;-79
2021/12/06 04:15:21;;;;;;;;;5.00;5.00;;;;;13.51;100.00;100893.06;5102455;27;45617;-79
2021/12/06 04:17:47;;;;;;;;;8.00;7.25;;;;;13.43;100.00;100895.47;5102309;27;45432;-79
2021/12/06 04:20:13;;;;;;;;;12.75;6.25;;;;;13.43;100.00;100890.16;5102689;27;45425;-79
2021/12/06 04:22:39;;;;;;;;;7.25;6.75;;;;;13.47;100.00;100911.00;5102639;27;45266;-79
2021/12/06 04:25:09;;;;;;;;;9.25;6.00;;;;;13.42;100.00;100899.91;5082706;27;45572;-79
2021/12/06 04:27:35;;;;;;;;;7.75;6.00;;;;;13.42;100.00;100894.63;5081745;28;45930;-79
2021/12/06 04:30:01;;;;;;;;;5.00;5.00;;;;;13.53;100.00;100901.75;5081852;28;45315;-79
2021/12/06 04:32:26;;;;;;;;;6.00;5.50;;;;;13.51;100.00;100910.78;5095176;27;45516;-79
2021/12/06 04:34:52;;;;;;;;;10.00;6.25;;;;;13.48;100.00;100903.91;5100802;27;45444;-79
2021/12/06 04:37:17;;;;;;;;;6.75;5.75;;;;;13.42;100.00;100899.06;5101972;27;45343;-79
2021/12/06 04:39:43;;;;;;;;;10.50;6.00;;;;;13.40;100.00;100898.34;5102539;27;45340;-79
2021/12/06 04:42:09;;;;;;;;;7.00;6.00;;;;;13.44;100.00;100905.97;5102345;27;45248;-79
2021/12/06 04:44:35;;;;;;;;;9.50;6.00;;;;;13.44;100.00;100927.19;5102291;27;45394;-79
2021/12/06 04:47:01;;;;;;;;;9.50;4.75;;;;;13.22;100.00;100927.13;5083818;27;47228;-79
2021/12/06 04:49:29;;;;;;;;;6.50;5.75;;;;;13.22;100.00;100939.53;5101058;27;45330;-79
2021/12/06 04:51:57;;;;;;;;;4.50;3.00;;;;;13.26;100.00;100944.50;5097289;27;45450;-79
2021/12/06 04:54:27;;;;;;;;;6.25;6.25;;;;;13.32;100.00;100943.16;5102283;27;45337;-79
2021/12/06 04:57:04;;;;;;;;;10.50;6.25;;;;;39.16;100.00;100878.97;5088283;27;46063;-79
2021/12/06 04:59:39;;;;;;;;;9.00;7.50;;;;;18.07;100.00;100946.63;5081255;28;45767;-79
2021/12/06 05:02:10;;;;;;;;;8.00;5.00;;;;;16.59;100.00;100958.59;5078375;28;45327;-79
2021/12/06 05:04:37;;;;;;;;;8.00;6.25;;;;;16.06;100.00;100956.19;5072461;27;45285;-79
2021/12/06 05:07:11;;;;;;;;;11.25;6.50;;;;;16.01;100.00;100958.44;5083511;27;47074;-79
2021/12/06 05:09:40;;;;;;;;;9.50;6.00;;;;;15.93;100.00;100960.91;5101978;27;45381;-79
2021/12/06 05:12:08;;;;;;;;;5.50;5.50;;;;;15.85;100.00;100958.88;5083579;27;45408;-79
2021/12/06 05:14:35;;;;;;;;;7.75;6.00;;;;;15.69;100.00;100971.81;5081293;27;45513;-79
2021/12/06 05:17:00;;;;;;;;;13.75;7.25;;;;;15.34;100.00;100972.97;5062912;28;47098;-79
2021/12/06 05:19:26;;;;;;;;;7.25;6.25;;;;;15.39;100.00;100977.88;5081174;28;45265;-79
2021/12/06 05:21:52;;;;;;;;;11.00;5.50;;;;;15.21;100.00;100976.75;5081403;28;46604;-79
2021/12/06 05:24:18;;;;;;;;;10.50;6.50;;;;;15.28;100.00;100975.31;5074291;28;45204;-79
2021/12/06 05:26:44;;;;;;;;;6.00;6.00;;;;;15.33;100.00;100971.28;5081018;28;46283;-79
2021/12/06 05:29:12;;;;;;;;;6.25;5.00;;;;;15.26;100.00;100970.09;5080768;28;45581;-79
2021/12/06 05:31:40;;;;;;;;;13.00;7.00;;;;;15.25;100.00;100975.53;5098906;27;45413;-79
2021/12/06 05:34:14;;;;;;;;;7.25;6.75;;;;;15.31;100.00;100975.88;5083258;27;45429;-79
2021/12/06 05:36:40;;;;;;;;;16.00;7.25;;;;;15.32;100.00;100988.22;5101154;27;46437;-79
2021/12/06 05:39:06;;;;;;;;;7.00;5.00;;;;;15.14;100.00;100994.22;5101510;27;45169;-79
2021/12/06 05:41:36;;;;;;;;;9.50;6.00;;;;;15.22;100.00;100997.91;5101444;27;45540;-79
2021/12/06 05:44:03;;;;;;;;;10.50;8.50;;;;;15.16;100.00;100995.78;5101229;27;45472;-79
2021/12/06 05:46:29;;;;;;;;;14.25;8.00;;;;;15.17;100.00;101001.94;5082819;27;47064;-79
2021/12/06 05:48:54;;;;;;;;;10.00;7.00;;;;;15.11;100.00;100997.16;5101325;27;45469;-79
2021/12/06 05:51:20;;;;;;;;;14.75;8.50;;;;;15.16;100.00;100992.28;5101254;27;45361;-79
2021/12/06 05:53:45;;;;;;;;;6.75;6.75;;;;;15.47;100.00;100995.91;5082856;27;45511;-79
2021/12/06 05:56:10;;;;;;;;;7.00;6.75;;;;;15.45;100.00;100992.50;5074939;28;48293;-79
2021/12/06 05:58:37;;;;;;;;;8.00;6.00;;;;;15.39;100.00;101006.34;5080486;28;45375;-79
2021/12/06 06:01:05;;;;;;;;;12.00;5.25;;;;;15.38;100.00;100996.66;5080429;27;45554;-79
2021/12/06 06:03:30;;;;;;;;;10.25;5.75;;;;;15.32;100.00;100995.34;5058822;28;45394;-79
2021/12/06 06:05:56;;;;;;;;;8.00;6.00;;;;;15.27;100.00;101002.88;5076047;28;45440;-79
2021/12/06 06:08:21;;;;;;;;;7.75;5.25;;;;;15.43;100.00;101008.59;5080623;28;45414;-79
2021/12/06 06:10:47;;;;;;;;;15.50;12.00;;;;;15.32;100.00;100998.84;5080565;28;45497;-79
2021/12/06 06:13:13;;;;;;;;;19.25;7.00;;;;;15.20;100.00;101007.88;5080322;28;45450;-79
2021/12/06 06:15:39;;;;;;;;;11.00;7.00;;;;;15.06;100.00;101009.97;5096067;27;45420;-79
2021/12/06 06:18:06;;;;;;;;;10.50;6.50;;;;;15.12;100.00;101012.09;5100396;27;45388;-80
2021/12/06 06:20:34;;;;;;;;;8.00;7.00;;;;;15.11;100.00;101018.41;5100888;27;45321;-79
2021/12/06 06:23:01;;;;;;;;;14.75;9.00;;;;;15.14;100.00;101020.81;5098402;27;45435;-79
2021/12/06 06:25:27;;;;;;;;;10.00;7.75;;;;;15.15;100.00;101027.81;5080140;27;45492;-79
2021/12/06 06:27:52;;;;;;;;;11.00;7.50;;;;;15.13;100.00;101033.25;5080095;28;45430;-79
2021/12/06 06:30:17;;;;;;;;;14.25;8.00;;;;;15.10;100.00;101024.72;5080175;28;45386;-79
2021/12/06 06:32:44;;;;;;;;;9.50;6.75;;;;;15.10;100.00;101022.91;5061837;28;45502;-79
2021/12/06 06:35:11;;;;;;;;;8.50;7.00;;;;;15.15;100.00;101041.13;5061794;28;47601;-79
2021/12/06 06:37:37;;;;;;;;;13.00;7.00;;;;;15.17;100.00;101028.56;5079951;28;45642;-79
2021/12/06 06:40:04;;;;;;;;;7.25;7.25;;;;;15.23;100.00;101038.69;5078612;28;45429;-80
2021/12/06 06:42:29;;;;;;;;;13.25;10.00;;;;;15.31;100.00;101036.22;5079818;28;45331;-79
2021/12/06 06:44:55;;;;;;;;;8.50;8.00;;;;;15.38;100.00;101028.59;5079707;28;46161;-79
2021/12/06 06:47:21;;;;;;;;;6.25;6.00;;;;;15.35;100.00;101024.38;5080012;28;45743;-79
2021/12/06 06:49:47;;;;;;;;;9.00;7.00;;;;;15.34;99.48;101028.00;5058817;28;45490;-79
2021/12/06 06:52:12;;;;;;;;;11.75;7.75;;;;;15.26;100.00;101030.44;5064636;28;45440;-79
2021/12/06 06:54:38;;;;;;;;;10.00;10.00;;;;;15.34;98.32;101030.66;5079892;28;45470;-79
2021/12/06 06:57:03;;;;;;;;;15.00;10.25;;;;;15.32;98.08;101035.25;5079532;28;45319;-80
2021/12/06 06:59:29;;;;;;;;;17.00;10.75;;;;;15.25;98.99;101040.25;5079366;27;45379;-79
2021/12/06 07:01:55;;;;;;;;;9.75;8.75;;;;;15.24;98.13;101046.53;5069478;28;45478;-81
2021/12/06 07:04:21;;;;;;;;;10.00;10.00;;;;;15.30;97.88;101043.34;5058708;28;47255;-81
2021/12/06 07:06:46;;;;;;;;;14.00;11.00;;;;;15.32;97.42;101053.88;5077891;28;45407;-82
2021/12/06 07:09:12;;;;;;;;;11.50;11.00;;;;;15.29;97.44;101051.50;5061370;28;45345;-80
2021/12/06 07:11:37;;;;;;;;;19.75;10.25;;;;;15.33;97.61;101050.25;5066551;28;45245;-81
2021/12/06 07:14:03;;;;;;;;;11.00;11.00;;;;;15.33;97.52;101063.56;5080721;27;45459;-81
2021/12/06 07:16:29;;;;;;;;;10.25;8.50;;;;;15.45;97.59;101078.53;5073089;27;45233;-81
2021/12/06 07:18:56;;;;;;;;;15.00;11.75;;;;;15.33;96.53;101071.53;5066822;28;45497;-81
2021/12/06 07:21:22;;;;;;;;;14.75;11.00;;;;;15.24;96.48;101066.97;5087646;27;45552;-81
2021/12/06 07:23:48;;;;;;;;;9.25;8.00;;;;;15.28;96.82;101082.56;5092492;27;45415;-80
2021/12/06 07:26:16;;;;;;;;;17.75;10.25;;;;;15.39;94.59;101065.69;5061685;28;45767;-80
2021/12/06 07:28:43;;;;;;;;;21.25;10.00;;;;;15.44;94.30;101074.16;5081971;28;45327;-81
2021/12/06 07:31:12;;;;;;;;;15.00;9.75;;;;;15.29;94.23;101075.44;5075217;27;45702;-80
2021/12/06 07:33:38;;;;;;;;;14.50;11.75;;;;;15.23;93.58;101081.25;5069263;27;46050;-82
2021/12/06 07:36:04;;;;;;;;;18.25;14.50;;;;;15.08;95.12;101087.81;5059562;28;45363;-80
2021/12/06 07:38:30;;;;;;;;;16.75;12.75;;;;;14.93;96.13;101092.56;5076140;27;45501;-80
2021/12/06 07:40:57;;;;;;;;;16.00;12.75;;;;;14.89;95.97;101086.63;5077600;28;45473;-80
2021/12/06 07:43:23;;;;;;;;;12.75;11.50;;;;;14.89;96.22;101076.00;5088270;27;45667;-80
2021/12/06 07:45:48;;;;;;;;;18.25;13.25;;;;;14.92;96.37;101080.25;5059263;28;46408;-79
2021/12/06 07:48:15;;;;;;;;;16.00;11.00;;;;;14.92;95.74;101073.09;5068468;28;45410;-79
2021/12/06 07:50:41;;;;;;;;;14.75;10.50;;;;;14.79;95.89;101082.16;5075527;28;45541;-79
2021/12/06 07:53:07;;;;;;;;;17.25;14.25;;;;;14.90;95.16;101085.69;5081394;27;46311;-79
2021/12/06 07:55:34;;;;;;;;;14.75;12.75;;;;;14.83;95.59;101083.63;5078885;28;45666;-78
2021/12/06 07:58:06;;;;;;;;;16.25;12.50;;;;;14.88;94.29;101090.25;5079049;28;45185;-79
2021/12/06 08:00:35;;;;;;;;;14.00;13.25;;;;;14.86;94.88;101089.53;5053352;28;45324;-80
2021/12/06 08:03:01;;;;;;;;;14.25;11.75;;;;;14.72;94.92;101084.47;5067648;27;45384;-80
2021/12/06 08:05:30;;;;;;;;;16.00;14.75;;;;;14.90;93.86;101091.00;5071778;27;45384;-79
2021/12/06 08:07:57;;;;;;;;;18.00;11.50;;;;;14.94;94.47;101087.09;5059747;28;45437;-80
2021/12/06 08:10:23;;;;;;;;;16.25;14.25;;;;;14.86;92.33;101080.72;5061447;28;45623;-79
2021/12/06 08:12:48;;;;;;;;;15.75;13.50;;;;;14.96;92.99;101082.50;5059183;28;47335;-79
2021/12/06 08:15:14;;;;;;;;;21.50;15.75;;;;;15.06;93.11;101069.31;5059122;27;46453;-79
2021/12/06 08:17:40;;;;;;;;;18.50;16.25;;;;;15.12;93.11;101063.50;5071115;27;46891;-79
2021/12/06 08:20:07;;;;;;;;;20.50;15.00;;;;;15.33;91.67;101080.38;5079287;27;45531;-80
2021/12/06 08:22:33;;;;;;;;;20.75;13.25;;;;;15.19;90.84;101077.16;5056175;27;47586;-80
2021/12/06 08:24:58;;;;;;;;;17.00;11.75;;;;;15.19;91.26;101080.66;5076868;27;45517;-80
2021/12/06 08:27:23;;;;;;;;;17.00;11.00;;;;;15.29;91.36;101073.63;5078006;27;45511;-79
2021/12/06 08:29:49;;;;;;;;;15.50;11.75;;;;;15.23;88.94;101063.47;5059759;27;45456;-79
2021/12/06 08:32:14;;;;;;;;;19.25;11.25;;;;;15.45;88.39;101059.91;5079224;28;45520;-80
2021/12/06 08:34:41;;;;;;;;;18.75;12.50;;;;;15.49;88.10;101063.13;5058267;28;45327;-77
2021/12/06 08:37:08;;;;;;;;;16.50;12.25;;;;;15.57;89.05;101058.88;5063610;28;45510;-80
2021/12/06 08:39:34;;;;;;;;;11.75;11.00;;;;;15.51;87.88;101067.34;5079920;28;45647;-83
2021/12/06 08:41:59;;;;;;;;;13.50;12.00;;;;;15.67;87.79;101075.78;5076839;27;46212;-82
2021/12/06 08:44:25;;;;;;;;;16.00;11.00;;;;;15.64;87.68;101060.09;5077313;27;46064;-83
2021/12/06 08:46:50;;;;;;;;;14.25;13.75;;;;;15.85;89.89;101061.91;5076315;28;45584;-80
2021/12/06 08:49:16;;;;;;;;;16.00;13.25;;;;;15.92;89.34;101066.59;5078160;27;45250;-81
2021/12/06 08:51:48;;;;;;;;;19.75;14.75;;;;;16.24;87.24;101074.50;5059523;28;48403;-81
2021/12/06 08:54:18;;;;;;;;;17.25;14.00;;;;;16.27;86.21;101068.06;5062403;28;45576;-81
2021/12/06 08:56:45;;;;;;;;;18.50;13.00;;;;;16.37;85.10;101050.31;5076769;27;45320;-81
2021/12/06 08:59:11;;;;;;;;;18.25;11.75;;;;;16.55;85.40;101048.69;5078357;28;45581;-80
2021/12/06 09:01:38;;;;;;;;;20.50;12.75;;;;;16.62;82.99;101049.88;5078110;28;45350;-80
2021/12/06 09:04:08;;;;;;;;;15.00;13.75;;;;;16.73;82.99;101052.44;5079153;27;45611;-80
2021/12/06 09:06:34;;;;;;;;;17.00;13.00;;;;;16.71;80.81;101054.41;5078960;28;45591;-80
2021/12/06 09:09:00;;;;;;;;;17.00;13.75;;;;;16.62;80.63;101049.88;5078512;28;45422;-80
2021/12/06 09:11:25;;;;;;;;;23.25;14.50;;;;;16.63;80.26;101058.72;5060221;28;47152;-80
2021/12/06 09:13:51;;;;;;;;;13.75;12.25;;;;;16.56;78.30;101053.06;5077002;28;45572;-80
2021/12/06 09:16:16;;;;;;;;;17.50;14.75;;;;;16.50;79.42;101064.22;5066237;27;45552;-80
2021/12/06 09:18:43;;;;;;;;;14.75;13.75;;;;;16.54;78.64;101067.50;5079991;27;45371;-80
2021/12/06 09:21:11;;;;;;;;;17.50;17.00;;;;;16.42;80.27;101064.91;5078263;27;45887;-80
2021/12/06 09:23:37;;;;;;;;;17.00;11.75;;;;;16.56;79.42;101062.88;5080187;27;46380;-80
2021/12/06 09:26:04;;;;;;;;;14.25;12.50;;;;;16.92;79.47;101073.00;5069352;28;45365;-80
2021/12/06 09:28:31;;;;;;;;;17.50;13.00;;;;;17.11;79.34;101075.72;5061644;27;45418;-80
2021/12/06 09:30:57;;;;;;;;;18.50;12.75;;;;;17.11;78.03;101056.19;5082450;27;48131;-80
2021/12/06 09:33:23;;;;;;;;;14.75;12.75;;;;;17.07;76.07;101052.94;5101065;27;45364;-80
2021/12/06 09:35:50;;;;;;;;;25.00;12.50;;;;;17.27;77.51;101059.16;5082508;27;45510;-80
2021/12/06 09:38:22;;;;;;;;;14.50;12.75;;;;;17.36;75.30;101069.00;5101084;27;45422;-80
2021/12/06 09:40:52;;;;;;;;;13.00;11.00;;;;;17.26;75.20;101062.81;5082867;27;47595;-81
2021/12/06 09:43:18;;;;;;;;;15.50;9.25;;;;;17.24;74.95;101075.44;5101269;27;45584;-81
2021/12/06 09:45:45;;;;;;;;;14.75;9.00;;;;;17.16;73.07;101062.78;5101684;27;45441;-81
2021/12/06 09:48:12;;;;;;;;;16.25;12.50;;;;;17.14;74.59;101061.22;5101180;27;45502;-80
2021/12/06 09:50:44;;;;;;;;;14.75;12.00;;;;;17.36;74.69;101066.34;5101038;27;46169;-80
2021/12/06 09:53:14;;;;;;;;;12.50;10.75;;;;;17.49;72.85;101066.88;5082613;27;45560;-80
2021/12/06 09:55:42;;;;;;;;;14.25;10.75;;;;;17.56;74.50;101056.50;5097843;27;45330;-80
2021/12/06 09:58:09;;;;;;;;;21.25;13.75;;;;;17.49;74.09;101061.53;5080053;28;45549;-80
2021/12/06 10:00:41;;;;;;;;;16.50;12.00;;;;;17.44;74.48;101062.97;5062099;28;46984;-80
2021/12/06 10:03:08;;;;;;;;;15.50;9.50;;;;;17.10;74.56;101058.00;5072973;28;45335;-81
2021/12/06 10:05:33;;;;;;;;;17.50;11.25;;;;;17.09;74.48;101056.31;5060446;27;45551;-80
2021/12/06 10:08:00;;;;;;;;;13.50;10.25;;;;;17.19;73.86;101067.03;5101048;27;45473;-80
2021/12/06 10:10:28;;;;;;;;;12.75;3.50;;;;;17.09;74.47;101053.66;5100558;27;45380;-80
2021/12/06 10:12:55;;;;;;;;;12.50;9.25;;;;;17.32;74.83;101067.56;5101184;27;45230;-80
2021/12/06 10:15:25;;;;;;;;;10.50;7.75;;;;;17.63;73.11;101059.47;5084778;27;45508;-80
2021/12/06 10:17:52;;;;;;;;;14.75;10.50;;;;;17.02;72.81;101052.53;5103899;27;45442;-80
2021/12/06 10:20:18;;;;;;;;;8.00;7.50;;;;;17.06;72.34;101032.56;5100516;27;45406;-80
2021/12/06 10:22:43;;;;;;;;;9.00;7.50;;;;;17.15;72.02;101029.06;5100494;27;45334;-80
2021/12/06 10:25:09;;;;;;;;;9.50;8.00;;;;;17.23;71.68;101032.88;5061875;28;45256;-80
2021/12/06 10:27:34;;;;;;;;;11.25;8.00;;;;;17.14;72.80;101021.19;5080235;28;45455;-80
2021/12/06 10:30:08;;;;;;;;;15.00;9.00;;;;;17.28;72.09;101023.47;5079649;28;45257;-81
2021/12/06 10:32:36;;;;;;;;;11.25;7.75;;;;;17.14;70.79;101022.06;5080024;28;45348;-80
2021/12/06 10:35:11;;;;;;;;;12.50;9.75;;;;;16.99;70.97;101014.59;5080123;28;45229;-79
2021/12/06 10:37:45;;;;;;;;;8.00;7.00;;;;;16.82;71.82;101008.97;5080056;28;45238;-79
2021/12/06 10:40:16;;;;;;;;;13.00;10.00;;;;;16.99;72.07;100995.91;5080220;28;45576;-80
2021/12/06 10:42:44;;;;;;;;;10.00;9.00;;;;;16.98;72.21;100987.06;5079722;28;45799;-79
2021/12/06 10:45:13;;;;;;;;;16.00;11.00;;;;;17.11;71.92;100986.81;5061892;28;45244;-79
2021/12/06 10:47:39;;;;;;;;;13.50;10.75;;;;;17.10;72.81;100993.13;5078721;28;45403;-79
2021/12/06 10:50:17;;;;;;;;;13.50;9.75;;;;;17.33;72.29;100978.50;5061709;28;47963;-80
2021/12/06 10:52:52;;;;;;;;;15.25;10.75;;;;;17.41;73.08;100988.47;5082322;28;45440;-79
2021/12/06 10:55:19;;;;;;;;;17.50;13.50;;;;;17.42;72.60;100982.16;5080924;27;45355;-79
2021/12/06 10:58:07;;;;;;;;;18.50;14.50;;;;;17.19;70.94;100981.63;5086618;27;46167;-79
2021/12/06 11:00:50;;;;;;;;;16.25;14.00;;;;;17.29;71.44;100974.44;5078836;27;48629;-80
2021/12/06 11:03:21;;;;;;;;;19.50;13.50;;;;;17.35;72.51;100960.53;5099817;27;45572;-80
2021/12/06 11:05:51;;;;;;;;;14.50;11.50;;;;;17.29;71.61;100954.94;5100322;27;45309;-80
2021/12/06 11:08:18;;;;;;;;;18.00;16.50;;;;;17.43;72.28;100963.34;5100098;27;45252;-80
2021/12/06 11:10:50;;;;;;;;;11.75;11.00;;;;;17.66;71.92;100958.56;5100181;27;45455;-82
2021/12/06 11:13:29;;;;;;;;;13.25;11.50;;;;;17.83;71.22;100948.97;5090678;27;45177;-80
2021/12/06 11:16:15;;;;;;;;;10.25;8.50;;;;;17.90;70.75;100950.91;5079601;28;45354;-79
2021/12/06 11:19:03;;;;;;;;;10.25;9.00;;;;;18.01;70.25;100943.69;5079685;27;45502;-80
2021/12/06 11:21:38;;;;;;;;;12.75;9.25;;;;;18.08;69.66;100944.78;5060676;28;48476;-80
2021/12/06 11:24:11;;;;;;;;;11.00;9.00;;;;;18.11;68.16;100950.69;5079359;28;45387;-80
2021/12/06 11:26:44;;;;;;;;;11.00;7.75;;;;;18.06;68.53;100960.13;5061168;28;45326;-80
2021/12/06 11:29:17;;;;;;;;;10.75;10.25;;;;;18.14;68.89;100954.88;5079091;28;45425;-80